Have a Safe July 4th! 

Flight Track Log - Related Links

Times and Time Zones

All times are in EDT time to prevent confusion due to time zone crossing. See the GJS3707 flight status page for this flight to view local times or setup timezone preferences in your user account.

Time Position Orientation Groundspeed Altitude Reporting Facility
EDT Latitude Longitude Course Direction KTS MPH feet Rate Location/Type
Mon 11:14:06 AM 42.0000 -87.9667 270° West 172 198 2,200  Level Chicago TRACON
Mon 11:15:12 AM 42.0167 -88.0500 285° West 212 244 4,500 1,836 Climbing Chicago TRACON
Mon 11:16:20 AM 42.0133 -88.1406 267° West 245 282 6,300 2,215 Climbing Chicago Center
Mon 11:17:22 AM 42.0000 -88.2594 261° West 270 311 9,300 2,323 Climbing Chicago Center
Mon 11:18:00 AM 41.9668 -88.6167 270° West  Level FlightAware Approximate
Mon 11:18:24 AM 42.0056 -88.3622 274° West 281 323 11,100  Level Chicago Center
Mon 11:19:00 AM 41.9667 -88.7612 270° West  Level FlightAware Approximate
Mon 11:19:26 AM 42.0175 -88.4808 278° West 315 362 12,400  Level Chicago Center
Mon 11:20:28 AM 42.0278 -88.6078 276° West 339 390 14,200 1,790 Climbing Chicago Center
Mon 11:21:30 AM 42.0411 -88.7383 278° West 352 405 16,100 1,887 Climbing Chicago Center
Mon 11:22:32 AM 42.0592 -88.8967 279° West 357 411 18,100 1,839 Climbing Chicago Center
Mon 11:23:34 AM 42.0681 -89.0383 275° West 363 418 19,900 1,452 Climbing Chicago Center
Mon 11:24:36 AM 42.0636 -89.1653 267° West 363 418 21,100 1,065 Climbing Chicago Center
Mon 11:25:38 AM 42.0592 -89.3081 268° West 380 437 22,100 968 Climbing Chicago Center
Mon 11:26:40 AM 42.0531 -89.4556 267° West 393 452 23,100 1,065 Climbing Chicago Center
Mon 11:27:42 AM 42.0458 -89.6350 267° West 402 463 24,300 1,065 Climbing Chicago Center
Mon 11:28:44 AM 42.0417 -89.7869 268° West 408 470 25,300 968 Climbing Chicago Center
Mon 11:29:46 AM 42.0500 -89.9303 275° West 409 471 26,300 968 Climbing Chicago Center
Mon 11:30:48 AM 42.0631 -90.0794 277° West 408 470 27,300 1,056 Climbing Chicago Center
Mon 11:31:51 AM 42.0894 -90.2572 281° West 408 470 28,500 1,065 Climbing Chicago Center
Mon 11:32:52 AM 42.1114 -90.4025 282° West 401 461 29,500 780 Climbing Chicago Center
Mon 11:33:54 AM 42.1328 -90.5506 281° West 404 465 30,100 629 Climbing Chicago Center
Mon 11:34:56 AM 42.1544 -90.6997 281° West 406 467 30,800 774 Climbing Chicago Center
Mon 11:35:58 AM 42.1756 -90.8489 281° West 408 470 31,700 919 Climbing Chicago Center
Mon 11:37:00 AM 42.1992 -90.9936 282° West 401 461 32,700 871 Climbing Chicago Center
Mon 11:38:02 AM 42.2275 -91.1675 282° West 398 458 33,500 629 Climbing Chicago Center
Mon 11:39:04 AM 42.2511 -91.3125 282° West 396 456 34,000 242 Climbing Chicago Center
Mon 11:40:06 AM 42.2756 -91.4592 283° West 401 461 34,000  Level Chicago Center
Mon 11:41:08 AM 42.3000 -91.6078 283° West 405 466 34,000  Level Chicago Center
Mon 11:42:10 AM 42.3247 -91.7550 283° West 403 464 34,000  Level Chicago Center
Mon 11:43:12 AM 42.3483 -91.9036 282° West 405 466 34,000  Level Chicago Center
Mon 11:44:14 AM 42.3764 -92.0808 282° West 402 463 34,000  Level Chicago Center
Mon 11:45:16 AM 42.3992 -92.2289 282° West 403 464 34,000  Level Chicago Center
Mon 11:46:18 AM 42.4228 -92.3769 282° West 405 466 34,000  Level Chicago Center
Mon 11:47:20 AM 42.4458 -92.5244 282° West 403 464 34,000  Level Chicago Center
Mon 11:48:22 AM 42.4683 -92.6725 282° West 403 464 34,000  Level Chicago Center
Mon 11:49:24 AM 42.4897 -92.8206 281° West 403 464 34,000  Level Chicago Center
Mon 11:50:26 AM 42.5175 -92.9972 282° West 404 465 34,000  Level Chicago Center
Mon 11:51:28 AM 42.5378 -93.1444 281° West 401 461 34,000  Level Chicago Center
Mon 11:52:06 AM 42.5525 -93.2342 283° West 403 464 34,000  Level Minneapolis Center
Mon 11:53:08 AM 42.5736 -93.3819 281° West 403 464 34,000  Level Minneapolis Center
Mon 11:54:10 AM 42.5956 -93.5325 281° West 408 470 34,000  Level Minneapolis Center
Mon 11:55:12 AM 42.6236 -93.7094 282° West 406 467 34,000  Level Minneapolis Center
Mon 11:56:14 AM 42.6428 -93.8583 280° West 405 466 34,000  Level Minneapolis Center
Mon 11:57:16 AM 42.6650 -94.0081 281° West 408 470 34,000  Level Minneapolis Center
Mon 11:58:18 AM 42.6858 -94.1569 281° West 407 468 34,000  Level Minneapolis Center
Mon 11:59:20 AM 42.7050 -94.3061 280° West 405 466 34,000  Level Minneapolis Center
Mon 12:00:22 PM 42.7297 -94.4864 281° West 407 468 34,000  Level Minneapolis Center
Mon 12:01:24 PM 42.7492 -94.6319 280° West 403 464 34,000  Level Minneapolis Center
Mon 12:02:26 PM 42.7686 -94.7817 280° West 403 464 34,000  Level Minneapolis Center
Mon 12:03:28 PM 42.7894 -94.9322 281° West 405 466 34,000  Level Minneapolis Center
Mon 12:04:30 PM 42.8131 -95.1133 280° West 405 466 34,000  Level Minneapolis Center
Mon 12:05:32 PM 42.8328 -95.2675 280° West 410 472 34,000  Level Minneapolis Center
Mon 12:06:34 PM 42.8528 -95.4200 280° West 410 472 34,000  Level Minneapolis Center
Mon 12:07:36 PM 42.8714 -95.5700 280° West 404 465 34,000  Level Minneapolis Center
Mon 12:08:38 PM 42.8906 -95.7225 280° West 405 466 34,000  Level Minneapolis Center
Mon 12:09:40 PM 42.9089 -95.8753 279° West 408 470 34,000  Level Minneapolis Center
Mon 12:10:42 PM 42.9281 -96.0278 280° West 408 470 34,000  Level Minneapolis Center
Mon 12:11:44 PM 42.9492 -96.2083 279° West 403 464 34,000  Level Minneapolis Center
Mon 12:12:46 PM 42.9667 -96.3619 279° West 405 466 34,000  Level Minneapolis Center
Mon 12:13:48 PM 42.9853 -96.5144 280° West 407 468 34,000  Level Minneapolis Center
Mon 12:14:50 PM 43.0031 -96.6692 279° West 409 471 34,000  Level Minneapolis Center
Mon 12:15:52 PM 43.0214 -96.8206 279° West 407 468 34,000  Level Minneapolis Center
Mon 12:16:54 PM 43.0378 -96.9742 278° West 408 470 34,000  Level Minneapolis Center
Mon 12:17:56 PM 43.0583 -97.1583 279° West 408 470 34,000  Level Minneapolis Center
Mon 12:18:58 PM 43.0764 -97.3125 279° West 409 471 34,000  Level Minneapolis Center
Mon 12:20:00 PM 43.0922 -97.4656 278° West 409 471 34,000  Level Minneapolis Center
Mon 12:21:02 PM 43.1089 -97.6208 278° West 410 472 34,000  Level Minneapolis Center
Mon 12:22:04 PM 43.1258 -97.7742 279° West 410 472 34,000  Level Minneapolis Center
Mon 12:23:06 PM 43.1425 -97.9281 278° West 409 471 34,000  Level Minneapolis Center
Mon 12:24:08 PM 43.1578 -98.0836 278° West 411 473 34,000  Level Minneapolis Center
Mon 12:25:10 PM 43.1767 -98.2686 278° West 411 473 34,000  Level Minneapolis Center
Mon 12:26:12 PM 43.1917 -98.4225 278° West 409 471 34,000  Level Minneapolis Center
Mon 12:27:14 PM 43.2075 -98.5772 278° West 411 473 34,000  Level Minneapolis Center
Mon 12:28:16 PM 43.2219 -98.7328 277° West 412 474 34,000  Level Minneapolis Center
Mon 12:29:18 PM 43.2369 -98.8892 278° West 414 476 34,000  Level Minneapolis Center
Mon 12:30:20 PM 43.2536 -99.0614 278° West 413 475 34,000  Level Minneapolis Center
Mon 12:31:22 PM 43.2683 -99.2189 277° West 416 479 34,000  Level Minneapolis Center
Mon 12:32:24 PM 43.2831 -99.3761 277° West 416 479 34,000  Level Minneapolis Center
Mon 12:33:26 PM 43.2975 -99.5344 277° West 417 480 34,000  Level Minneapolis Center
Mon 12:34:28 PM 43.3111 -99.6922 277° West 417 480 34,000  Level Minneapolis Center
Mon 12:35:30 PM 43.3281 -99.8806 277° West 415 478 34,000  Level Minneapolis Center
Mon 12:36:32 PM 43.3411 -100.0386 277° West 416 479 34,000  Level Minneapolis Center
Mon 12:37:34 PM 43.3544 -100.1983 277° West 419 482 34,000  Level Minneapolis Center
Mon 12:38:36 PM 43.3667 -100.3539 276° West 414 476 34,000  Level Minneapolis Center
Mon 12:38:54 PM 43.3722 -100.4158 277° West 415 478 34,000  Level Denver Center
Mon 12:39:56 PM 43.3847 -100.5711 276° West 411 473 34,000  Level Denver Center
Mon 12:40:40 PM 43.3919 -100.6658 276° West 411 473 34,000  Level Minneapolis Center
Mon 12:41:42 PM 43.4064 -100.8486 276° West 403 464 34,000  Level Minneapolis Center
Mon 12:42:00 PM 43.4089 -100.8794 276° West 404 465 34,000  Level Denver Center
Mon 12:43:02 PM 43.4203 -101.0297 276° West 396 456 34,000  Level Denver Center
Mon 12:44:04 PM 43.4311 -101.1828 276° West 400 460 34,000  Level Denver Center
Mon 12:45:06 PM 43.4433 -101.3344 276° West 398 458 34,000  Level Denver Center
Mon 12:46:09 PM 43.4556 -101.5133 275° West 392 451 34,000  Level Denver Center
Mon 12:47:11 PM 43.4667 -101.6642 276° West 393 452 34,000  Level Denver Center
Mon 12:48:13 PM 43.4775 -101.8128 276° West 390 449 34,000  Level Denver Center
Mon 12:49:15 PM 43.4881 -101.9617 276° West 390 449 34,000  Level Denver Center
Mon 12:50:17 PM 43.4975 -102.1100 275° West 388 447 34,000  Level Denver Center
Mon 12:51:19 PM 43.5083 -102.2753 275° West 383 441 34,000  Level Denver Center
Mon 12:52:21 PM 43.5172 -102.4161 275° West 385 443 34,000  Level Denver Center
Mon 12:53:23 PM 43.5283 -102.5800 275° West 383 441 34,000  Level Denver Center
Mon 12:54:25 PM 43.5381 -102.7194 276° West 384 442 34,000  Level Denver Center
Mon 12:55:27 PM 43.5467 -102.8817 274° West 381 438 34,000  Level Denver Center
Mon 12:56:29 PM 43.5542 -103.0203 274° West 381 438 34,000  Level Denver Center
Mon 12:57:31 PM 43.5639 -103.1808 275° West 378 435 34,000  Level Denver Center
Mon 12:58:33 PM 43.5719 -103.3197 275° West 379 436 34,000  Level Denver Center
Mon 12:59:35 PM 43.5814 -103.4819 275° West 381 438 34,000  Level Denver Center
Mon 01:00:37 PM 43.5886 -103.6186 274° West 378 435 34,000  Level Denver Center
Mon 01:01:39 PM 43.5975 -103.7800 274° West 378 435 34,000  Level Denver Center
Mon 01:02:41 PM 43.6050 -103.9192 274° West 379 436 34,000  Level Denver Center
Mon 01:03:43 PM 43.6119 -104.0783 274° West 376 433 34,000  Level Denver Center
Mon 01:04:45 PM 43.6192 -104.2139 274° West 374 430 34,000  Level Denver Center
Mon 01:05:47 PM 43.6239 -104.3297 273° West 375 432 34,000  Level Denver Center
Mon 01:06:50 PM 43.6333 -104.5139 274° West 379 436 34,000  Level Denver Center
Mon 01:07:52 PM 43.6397 -104.6525 274° West 378 435 34,000  Level Denver Center
Mon 01:08:54 PM 43.6469 -104.8122 274° West 376 433 34,000  Level Denver Center
Mon 01:09:56 PM 43.6525 -104.9497 273° West 376 433 34,000  Level Denver Center
Mon 01:11:10 PM 43.6589 -105.1069 273° West 371 427 34,000  Level Denver Center
Mon 01:12:12 PM 43.6669 -105.2861 274° West 369 425 34,000  Level Denver Center
Mon 01:13:14 PM 43.6714 -105.4214 273° West 369 425 34,000  Level Denver Center
Mon 01:14:17 PM 43.6767 -105.5800 273° West 370 426 34,000  Level Denver Center
Mon 01:15:19 PM 43.6833 -105.7139 274° West 368 423 34,000  Level Denver Center
Mon 01:16:21 PM 43.6864 -105.8736 272° West 372 428 34,000  Level Denver Center
Mon 01:17:23 PM 43.6911 -106.0081 273° West 368 423 34,000  Level Denver Center
Mon 01:18:25 PM 43.6953 -106.1650 272° West 366 421 34,000  Level Denver Center
Mon 01:18:47 PM 43.6975 -106.2097 274° West 366 421 34,000  Level Salt Lake Center
Mon 01:19:49 PM 43.7011 -106.3436 272° West 364 419 34,000  Level Salt Lake Center
Mon 01:20:29 PM 43.7031 -106.4561 271° West 368 423 34,000  Level Denver Center
Mon 01:21:31 PM 43.7078 -106.5869 273° West 358 412 34,000  Level Denver Center
Mon 01:21:53 PM 43.7064 -106.6333 268° West 363 418 34,000  Level Salt Lake Center
Mon 01:22:55 PM 43.7097 -106.7853 272° West 358 412 34,000  Level Salt Lake Center
Mon 01:23:57 PM 43.7136 -106.9217 272° West 352 405 34,000  Level Salt Lake Center
Mon 01:24:37 PM 43.7172 -107.0042 273° West 352 405 34,000  Level Denver Center
Mon 01:25:39 PM 43.7208 -107.1572 272° West 355 409 34,000  Level Denver Center
Mon 01:26:01 PM 43.7211 -107.2019 271° West 355 409 34,000  Level Salt Lake Center
Mon 01:27:03 PM 43.7242 -107.3342 272° West 357 411 34,000  Level Salt Lake Center
Mon 01:28:05 PM 43.7281 -107.4842 272° West 351 404 34,000  Level Salt Lake Center
Mon 01:29:06 PM 43.7297 -107.6125 271° West 349 402 34,000  Level Salt Lake Center
Mon 01:30:08 PM 43.7319 -107.7611 271° West 346 398 34,000  Level Salt Lake Center
Mon 01:31:10 PM 43.7350 -107.8872 272° West 344 396 34,000  Level Salt Lake Center
Mon 01:32:12 PM 43.7369 -108.0150 271° West 346 398 34,000  Level Salt Lake Center
Mon 01:33:14 PM 43.7392 -108.1608 271° West 340 391 34,000  Level Salt Lake Center
Mon 01:34:16 PM 43.7408 -108.2847 271° West 337 388 34,000  Level Salt Lake Center
Mon 01:35:18 PM 43.7422 -108.4300 271° West 337 388 34,000  Level Salt Lake Center
Mon 01:36:20 PM 43.7439 -108.5564 271° West 341 392 34,000  Level Salt Lake Center
Mon 01:37:22 PM 43.7450 -108.7056 271° West 345 397 34,000  Level Salt Lake Center
Mon 01:38:24 PM 43.7458 -108.8314 271° West 344 396 34,000  Level Salt Lake Center
Mon 01:39:26 PM 43.7472 -108.9819 271° West 348 400 34,000  Level Salt Lake Center
Mon 01:40:28 PM 43.7483 -109.1131 271° West 356 410 34,000  Level Salt Lake Center
Mon 01:41:30 PM 43.7472 -109.2464 269° West 362 417 34,000  Level Salt Lake Center
Mon 01:42:32 PM 43.7486 -109.4025 271° West 363 418 34,000  Level Salt Lake Center
Mon 01:43:34 PM 43.7483 -109.5497 270° West 361 415 34,000  Level Salt Lake Center
Mon 01:44:36 PM 43.7492 -109.6822 271° West 360 414 34,000  Level Salt Lake Center
Mon 01:45:38 PM 43.7500 -109.8369 270° West 360 414 34,000  Level Salt Lake Center
Mon 01:46:40 PM 43.7489 -109.9708 269° West 364 419 34,000  Level Salt Lake Center
Mon 01:47:42 PM 43.7492 -110.1269 270° West 365 420 34,000  Level Salt Lake Center
Mon 01:48:44 PM 43.7489 -110.2614 270° West 366 421 34,000  Level Salt Lake Center
Mon 01:49:46 PM 43.7481 -110.3956 270° West 366 421 34,000  Level Salt Lake Center
Mon 01:50:48 PM 43.7472 -110.5519 270° West 365 420 34,000  Level Salt Lake Center
Mon 01:51:50 PM 43.7475 -110.6853 270° West 362 417 34,000  Level Salt Lake Center
Mon 01:52:53 PM 43.7442 -110.8456 268° West 372 428 34,000  Level Salt Lake Center
Mon 01:53:55 PM 43.7433 -110.9825 270° West 372 428 34,000  Level Salt Lake Center
Mon 01:54:57 PM 43.7414 -111.1436 269° West 372 428 34,000  Level Salt Lake Center
Mon 01:55:59 PM 43.7389 -111.2803 269° West 371 427 34,000  Level Salt Lake Center
Mon 01:57:01 PM 43.7361 -111.4392 269° West 369 425 34,000  Level Salt Lake Center
Mon 01:58:03 PM 43.7347 -111.5772 269° West 372 428 34,000  Level Salt Lake Center
Mon 01:59:05 PM 43.7314 -111.7144 268° West 373 429 34,000  Level Salt Lake Center
Mon 02:00:07 PM 43.7292 -111.8756 269° West 374 430 34,000  Level Salt Lake Center
Mon 02:01:09 PM 43.7272 -112.0136 269° West 375 432 34,000  Level Salt Lake Center
Mon 02:02:11 PM 43.7233 -112.1761 268° West 378 435 34,000  Level Salt Lake Center
Mon 02:03:13 PM 43.7206 -112.3153 268° West 379 436 34,000  Level Salt Lake Center
Mon 02:04:15 PM 43.7158 -112.4775 268° West 378 435 34,000  Level Salt Lake Center
Mon 02:05:17 PM 43.7117 -112.6178 268° West 379 436 34,000  Level Salt Lake Center
Mon 02:06:19 PM 43.7075 -112.7828 268° West 383 441 34,000  Level Salt Lake Center
Mon 02:07:21 PM 43.7039 -112.9256 268° West 387 445 34,000  Level Salt Lake Center
Mon 02:08:23 PM 43.6997 -113.0908 268° West 386 444 34,000  Level Salt Lake Center
Mon 02:09:25 PM 43.6942 -113.2333 267° West 388 447 34,000  Level Salt Lake Center
Mon 02:10:27 PM 43.6903 -113.3758 268° West 388 447 34,000  Level Salt Lake Center
Mon 02:11:29 PM 43.6858 -113.5439 268° West 392 451 34,000  Level Salt Lake Center
Mon 02:12:31 PM 43.6808 -113.6922 267° West 395 455 34,000  Level Salt Lake Center
Mon 02:13:33 PM 43.6747 -113.8608 267° West 394 453 34,000 -290 Level Salt Lake Center
Mon 02:14:35 PM 43.6683 -114.0108 267° West 392 451 33,400 -968 Descending Salt Lake Center
Mon 02:15:37 PM 43.6611 -114.1825 267° West 398 458 32,000 -1,694 Descending Salt Lake Center
Mon 02:16:39 PM 43.6558 -114.3269 267° West 394 453 29,900 -2,177 Descending Salt Lake Center
Mon 02:17:41 PM 43.6497 -114.4753 267° West 402 463 27,500 -2,516 Descending Salt Lake Center
Mon 02:18:43 PM 43.6428 -114.6442 267° West 394 453 24,700 -2,516 Descending Salt Lake Center
Mon 02:19:45 PM 43.6364 -114.7867 267° West 388 447 22,300 -2,661 Descending Salt Lake Center
Mon 02:20:47 PM 43.6297 -114.9467 267° West 384 442 19,200 -2,758 Descending Salt Lake Center
Mon 02:21:49 PM 43.6225 -115.0947 266° West 372 428 16,600 -2,129 Descending Salt Lake Center
Mon 02:22:51 PM 43.6158 -115.2344 266° West 352 405 14,800 -1,355 Descending Salt Lake Center
Mon 02:23:53 PM 43.6092 -115.3750 266° West 352 405 13,800 -968 Descending Salt Lake Center
Mon 02:24:55 PM 43.5994 -115.5206 265° West 364 419 12,800 -871 Descending Salt Lake Center
Mon 02:25:57 PM 43.5728 -115.6589 255° West 361 415 12,000 -1,016 Descending Salt Lake Center
Mon 02:26:59 PM 43.5469 -115.7700 252° West 297 342 10,700 -1,597 Descending Salt Lake Center
Mon 02:28:01 PM 43.5183 -115.8692 248° West 291 335 8,700 -1,694 Descending Salt Lake Center
Mon 02:29:03 PM 43.4903 -115.9747 250° West 284 327 7,200 -1,258 Descending Salt Lake Center
Mon 02:30:05 PM 43.5083 -116.0611 286° West 232 267 6,100 -97 Descending Salt Lake Center
Mon 02:31:07 PM 43.5344 -116.1408 294° West 218 251 7,000 435 Climbing Salt Lake Center
Mon 02:32:09 PM 43.5378 -116.2306 273° West 239 275 7,000  Level Salt Lake Center
Mon 02:33:11 PM 43.5158 -116.3144 250° West 225 259 7,000 -339 Level Salt Lake Center
Mon 02:34:13 PM 43.4628 -116.3242 188° South 239 275 6,300 -672 Descending Salt Lake Center
Mon 02:35:16 PM 43.4406 -116.2489 112° Southeast 221 254 5,600 -624 Descending Salt Lake Center
Mon 02:36:18 PM 43.4644 -116.1822 64° Northeast 205 236 5,000 -581 Descending Salt Lake Center

Login

Don't have an account? Register now (free) for customized features, flight alerts, and more!